createdAt,value
2018-03-30T00:00:55.786Z,16.07
2018-03-30T00:03:26.905Z,16.40
2018-03-30T00:05:57.241Z,16.10
2018-03-30T00:08:27.074Z,17.57
2018-03-30T00:10:57.926Z,18.00
2018-03-30T00:13:28.339Z,15.87
2018-03-30T00:15:58.766Z,16.23
2018-03-30T00:18:29.518Z,16.13
2018-03-30T00:21:00.042Z,15.83
2018-03-30T00:23:30.257Z,16.43
2018-03-30T00:26:00.660Z,16.33
2018-03-30T00:28:31.207Z,15.90
2018-03-30T00:31:02.071Z,15.53
2018-03-30T00:33:32.919Z,14.27
2018-03-30T00:36:03.704Z,14.47
2018-03-30T00:38:34.031Z,14.17
2018-03-30T00:41:05.111Z,14.63
2018-03-30T00:43:36.014Z,14.30
2018-03-30T00:46:06.775Z,14.50
2018-03-30T00:48:37.384Z,14.23
2018-03-30T00:51:07.921Z,13.90
2018-03-30T00:53:55.320Z,13.83
2018-03-30T00:56:25.298Z,13.50
2018-03-30T01:03:33.974Z,13.07
2018-03-30T01:06:04.650Z,12.93
2018-03-30T01:08:35.266Z,14.57
2018-03-30T01:11:11.131Z,14.63
2018-03-30T01:13:41.777Z,14.93
2018-03-30T01:16:12.369Z,15.17
2018-03-30T01:18:42.208Z,14.67
2018-03-30T01:21:12.613Z,13.67
2018-03-30T01:23:42.992Z,13.77
2018-03-30T01:26:13.446Z,13.60
2018-03-30T01:28:44.363Z,12.40
2018-03-30T01:31:14.860Z,12.03
2018-03-30T01:33:45.455Z,13.07
2018-03-30T01:36:16.033Z,13.70
2018-03-30T01:38:46.746Z,12.87
2018-03-30T01:41:16.974Z,13.43
2018-03-30T01:43:47.701Z,16.50
2018-03-30T01:46:18.737Z,15.53
2018-03-30T01:48:49.344Z,11.87
2018-03-30T01:51:20.419Z,13.57
2018-03-30T01:53:51.023Z,12.90
2018-03-30T01:56:21.480Z,12.93
2018-03-30T01:58:52.661Z,14.07
2018-03-30T02:01:22.617Z,12.60
2018-03-30T02:03:53.473Z,13.57
2018-03-30T02:06:24.650Z,12.53
2018-03-30T02:08:56.074Z,12.50
2018-03-30T02:11:26.596Z,12.53
2018-03-30T02:13:57.530Z,12.67
2018-03-30T02:16:28.274Z,12.27
2018-03-30T02:18:58.707Z,12.80
2018-03-30T02:21:29.223Z,12.53
2018-03-30T02:24:00.271Z,11.90
2018-03-30T02:26:31.020Z,12.23
2018-03-30T02:29:02.184Z,12.53
2018-03-30T02:31:33.136Z,12.83
2018-03-30T02:34:04.222Z,12.47
2018-03-30T02:36:34.652Z,13.10
2018-03-30T02:39:04.890Z,14.67
2018-03-30T02:41:36.215Z,14.03
2018-03-30T02:44:06.654Z,15.23
2018-03-30T02:46:37.280Z,13.77
2018-03-30T02:49:09.013Z,14.33
2018-03-30T02:51:39.580Z,15.87
2018-03-30T02:54:10.173Z,15.27
2018-03-30T02:56:40.941Z,17.30
2018-03-30T02:59:12.212Z,16.33
2018-03-30T03:01:42.825Z,13.23
2018-03-30T03:04:13.547Z,13.27
2018-03-30T03:06:44.384Z,13.67
2018-03-30T03:09:15.274Z,13.97
2018-03-30T03:11:45.719Z,15.77
2018-03-30T03:14:16.081Z,16.47
2018-03-30T03:16:47.104Z,15.43
2018-03-30T03:19:18.168Z,15.77
2018-03-30T03:21:48.901Z,14.10
2018-03-30T03:24:20.084Z,14.57
2018-03-30T03:26:50.882Z,14.17
2018-03-30T03:29:21.416Z,13.50
2018-03-30T03:31:52.202Z,14.30
2018-03-30T03:34:23.210Z,16.00
2018-03-30T03:36:53.761Z,14.17
2018-03-30T03:39:24.213Z,15.60
2018-03-30T03:41:55.164Z,13.57
2018-03-30T03:44:25.713Z,15.53
2018-03-30T03:46:56.519Z,15.93
2018-03-30T03:49:27.538Z,15.43
2018-03-30T03:51:58.164Z,15.43
2018-03-30T03:54:28.666Z,15.90
2018-03-30T03:56:59.315Z,13.33
2018-03-30T03:59:29.496Z,14.03
2018-03-30T04:02:00.031Z,14.53
2018-03-30T04:04:30.551Z,12.87
2018-03-30T04:07:01.254Z,13.77
2018-03-30T04:09:31.735Z,14.83
2018-03-30T04:12:01.937Z,15.60
2018-03-30T04:14:32.236Z,14.17
2018-03-30T04:17:03.062Z,15.63
2018-03-30T04:19:34.261Z,14.30
2018-03-30T04:22:05.077Z,12.27
2018-03-30T04:24:36.016Z,12.00
2018-03-30T04:27:06.443Z,12.00
2018-03-30T04:29:36.975Z,12.97
2018-03-30T04:32:07.458Z,13.07
2018-03-30T04:34:38.042Z,12.57
2018-03-30T04:37:08.528Z,12.87
2018-03-30T04:39:39.133Z,12.97
2018-03-30T04:42:08.894Z,11.07
2018-03-30T04:44:38.814Z,12.53
2018-03-30T04:47:08.626Z,11.73
2018-03-30T04:49:38.546Z,12.47
2018-03-30T04:52:08.462Z,11.67
2018-03-30T04:54:39.299Z,29.67
2018-03-30T04:57:09.201Z,13.20
2018-03-30T04:59:39.124Z,12.47
2018-03-30T05:02:09.037Z,11.80
2018-03-30T05:04:38.959Z,13.63
2018-03-30T05:07:08.864Z,13.87
2018-03-30T05:09:38.880Z,13.57
2018-03-30T05:12:08.797Z,14.10
2018-03-30T05:14:38.724Z,14.97
2018-03-30T05:17:08.529Z,14.13
2018-03-30T05:19:38.444Z,15.00
2018-03-30T05:22:08.252Z,16.30
2018-03-30T05:24:38.280Z,17.20
2018-03-30T05:27:08.184Z,17.03
2018-03-30T05:29:38.107Z,17.43
2018-03-30T05:32:08.019Z,16.93
2018-03-30T05:34:37.787Z,17.23
2018-03-30T05:37:07.645Z,19.33
2018-03-30T05:39:37.549Z,18.60
2018-03-30T05:42:07.472Z,18.73
2018-03-30T05:44:37.287Z,19.30
2018-03-30T05:47:07.194Z,18.77
2018-03-30T05:49:37.011Z,18.30
2018-03-30T05:52:06.790Z,19.37
2018-03-30T05:54:36.608Z,19.10
2018-03-30T05:57:06.448Z,18.90
2018-03-30T05:59:36.271Z,19.80
2018-03-30T06:02:06.169Z,17.70
2018-03-30T06:04:36.097Z,20.33
2018-03-30T06:07:05.868Z,20.90
2018-03-30T06:09:35.873Z,26.60
2018-03-30T06:12:05.730Z,24.33
2018-03-30T06:14:35.658Z,24.70
2018-03-30T06:17:05.555Z,24.53
2018-03-30T06:19:35.480Z,24.23
2018-03-30T06:22:06.106Z,26.23
2018-03-30T06:24:36.020Z,26.03
2018-03-30T06:27:05.931Z,26.27
2018-03-30T06:29:35.852Z,27.00
2018-03-30T06:32:05.766Z,27.07
2018-03-30T06:34:35.575Z,27.10
2018-03-30T06:37:05.392Z,26.03
2018-03-30T06:39:35.300Z,27.23
2018-03-30T06:42:05.126Z,29.97
2018-03-30T06:44:34.905Z,26.97
2018-03-30T06:47:04.748Z,25.93
2018-03-30T06:49:34.552Z,27.07
2018-03-30T06:52:04.487Z,26.73
2018-03-30T06:54:34.382Z,27.70
2018-03-30T06:57:04.318Z,26.67
2018-03-30T06:59:34.110Z,26.67
2018-03-30T07:02:04.032Z,26.00
2018-03-30T07:04:33.842Z,28.47
2018-03-30T07:07:03.658Z,27.07
2018-03-30T07:09:33.562Z,28.33
2018-03-30T07:12:03.377Z,26.93
2018-03-30T07:14:33.292Z,27.30
2018-03-30T07:17:03.105Z,26.73
2018-03-30T07:19:33.052Z,25.67
2018-03-30T07:22:02.833Z,28.00
2018-03-30T07:24:32.647Z,26.60
2018-03-30T07:27:02.561Z,27.30
2018-03-30T07:29:32.473Z,27.93
2018-03-30T07:32:02.413Z,27.43
2018-03-30T07:34:32.265Z,27.20
2018-03-30T07:37:02.232Z,28.83
2018-03-30T07:39:32.132Z,29.53
2018-03-30T07:42:01.951Z,28.83
2018-03-30T07:44:31.869Z,29.13
2018-03-30T07:47:01.682Z,30.07
2018-03-30T07:49:31.602Z,28.87
2018-03-30T07:52:01.387Z,27.87
2018-03-30T07:54:31.317Z,26.70
2018-03-30T07:57:01.135Z,27.30
2018-03-30T07:59:31.053Z,28.60
2018-03-30T08:02:00.858Z,28.80
2018-03-30T08:04:31.707Z,29.17
2018-03-30T08:07:01.526Z,29.47
2018-03-30T08:09:31.428Z,27.77
2018-03-30T08:12:01.336Z,29.40
2018-03-30T08:14:31.146Z,28.27
2018-03-30T08:17:00.931Z,28.30
2018-03-30T08:19:30.776Z,27.57
2018-03-30T08:22:00.696Z,28.03
2018-03-30T08:24:30.498Z,28.37
2018-03-30T08:27:00.317Z,27.90
2018-03-30T08:29:30.132Z,29.23
2018-03-30T08:31:59.942Z,28.27
2018-03-30T08:34:29.850Z,26.93
2018-03-30T08:36:59.727Z,27.70
2018-03-30T08:39:29.585Z,27.63
2018-03-30T08:41:59.394Z,28.10
2018-03-30T08:44:29.314Z,27.83
2018-03-30T08:46:59.231Z,29.07
2018-03-30T08:49:29.032Z,24.13
2018-03-30T08:51:58.975Z,22.67
2018-03-30T08:54:28.870Z,21.10
2018-03-30T08:56:58.879Z,21.00
2018-03-30T08:59:28.697Z,21.93
2018-03-30T09:01:58.609Z,21.53
2018-03-30T09:04:28.418Z,24.63
2018-03-30T09:06:58.237Z,24.57
2018-03-30T09:09:28.052Z,24.73
2018-03-30T09:11:57.774Z,24.40
2018-03-30T09:14:27.673Z,21.87
2018-03-30T09:16:57.583Z,24.57
2018-03-30T09:19:27.403Z,24.93
2018-03-30T09:21:57.210Z,23.93
2018-03-30T09:24:27.026Z,22.20
2018-03-30T09:26:56.914Z,21.97
2018-03-30T09:29:26.856Z,22.57
2018-03-30T09:31:56.776Z,21.83
2018-03-30T09:34:26.577Z,21.27
2018-03-30T09:36:56.493Z,20.53
2018-03-30T09:39:26.306Z,20.63
2018-03-30T09:41:56.118Z,19.80
2018-03-30T09:44:26.043Z,19.80
2018-03-30T09:46:55.808Z,21.23
2018-03-30T09:49:25.669Z,20.27
2018-03-30T09:51:55.470Z,19.80
2018-03-30T09:54:25.290Z,20.73
2018-03-30T09:56:55.200Z,22.20
2018-03-30T09:59:25.017Z,21.50
2018-03-30T10:01:54.932Z,20.60
2018-03-30T10:04:28.629Z,19.43
2018-03-30T10:06:58.448Z,18.90
2018-03-30T10:09:28.266Z,18.93
2018-03-30T10:11:58.075Z,18.97
2018-03-30T10:14:27.982Z,18.80
2018-03-30T10:16:57.806Z,19.40
2018-03-30T10:19:27.612Z,18.47
2018-03-30T10:21:57.398Z,18.33
2018-03-30T10:24:27.288Z,18.50
2018-03-30T10:26:57.154Z,16.77
2018-03-30T10:29:26.958Z,17.23
2018-03-30T10:31:56.782Z,16.93
2018-03-30T10:34:27.611Z,17.57
2018-03-30T10:36:57.523Z,17.23
2018-03-30T10:39:27.296Z,18.33
2018-03-30T10:41:57.150Z,19.50
2018-03-30T10:44:26.965Z,18.10
2018-03-30T10:46:56.781Z,16.87
2018-03-30T10:49:26.592Z,18.13
2018-03-30T10:51:56.398Z,18.70
2018-03-30T10:54:27.049Z,18.10
2018-03-30T10:56:56.846Z,18.20
2018-03-30T10:59:26.659Z,18.50
2018-03-30T11:01:56.469Z,17.53
2018-03-30T11:04:26.309Z,15.57
2018-03-30T11:06:56.101Z,15.80
2018-03-30T11:09:25.870Z,13.13
2018-03-30T11:11:55.722Z,11.63
2018-03-30T11:14:25.543Z,12.37
2018-03-30T11:16:55.445Z,14.43
2018-03-30T11:19:25.257Z,15.03
2018-03-30T11:21:55.175Z,16.27
2018-03-30T11:24:24.991Z,17.30
2018-03-30T11:26:54.903Z,17.63
2018-03-30T11:29:24.814Z,18.13
2018-03-30T11:31:54.636Z,18.67
2018-03-30T11:34:24.440Z,19.50
2018-03-30T11:36:54.255Z,22.27
2018-03-30T11:39:24.176Z,24.40
2018-03-30T11:41:53.989Z,21.80
2018-03-30T11:44:23.798Z,21.00
2018-03-30T11:46:53.719Z,18.07
2018-03-30T11:49:23.542Z,18.50
2018-03-30T11:51:53.453Z,18.63
2018-03-30T11:54:23.207Z,17.30
2018-03-30T11:56:53.074Z,19.13
2018-03-30T11:59:22.879Z,19.37
2018-03-30T12:01:52.697Z,18.70
2018-03-30T12:04:22.602Z,17.23
2018-03-30T12:06:52.424Z,17.30
2018-03-30T12:09:22.337Z,16.87
2018-03-30T12:11:52.153Z,16.43
2018-03-30T12:14:22.056Z,16.50
2018-03-30T12:16:52.180Z,16.63
2018-03-30T12:19:21.995Z,16.40
2018-03-30T12:21:51.805Z,16.37
2018-03-30T12:24:21.513Z,16.40
2018-03-30T12:26:51.376Z,17.80
2018-03-30T12:29:21.113Z,19.10
2018-03-30T12:31:50.956Z,18.37
2018-03-30T12:34:20.765Z,19.13
2018-03-30T12:36:50.582Z,17.57
2018-03-30T12:39:20.496Z,17.90
2018-03-30T12:41:50.309Z,16.53
2018-03-30T12:44:20.224Z,15.50
2018-03-30T12:46:50.138Z,15.67
2018-03-30T12:49:20.046Z,16.27
2018-03-30T12:51:49.864Z,13.67
2018-03-30T12:54:19.775Z,15.47
2018-03-30T12:56:49.565Z,14.37
2018-03-30T12:59:19.491Z,13.87
2018-03-30T13:01:49.315Z,12.77
2018-03-30T13:04:19.137Z,11.00
2018-03-30T13:06:48.943Z,11.13
2018-03-30T13:09:18.741Z,10.53
2018-03-30T13:11:48.565Z,10.93
2018-03-30T13:14:18.388Z,8.97
2018-03-30T13:16:48.300Z,9.30
2018-03-30T13:19:18.213Z,10.40
2018-03-30T13:21:48.026Z,9.43
2018-03-30T13:24:17.948Z,9.20
2018-03-30T13:26:47.723Z,9.33
2018-03-30T13:29:17.565Z,11.20
2018-03-30T13:31:47.396Z,8.77
2018-03-30T13:34:17.193Z,8.53
2018-03-30T13:36:47.820Z,8.87
2018-03-30T13:39:17.632Z,9.30
2018-03-30T13:41:47.445Z,8.97
2018-03-30T13:44:17.200Z,8.43
2018-03-30T13:46:46.977Z,8.83
2018-03-30T13:49:16.791Z,9.50
2018-03-30T13:51:48.320Z,9.40
2018-03-30T13:54:19.888Z,9.00
2018-03-30T13:56:56.661Z,9.27
2018-03-30T13:59:27.303Z,8.93
2018-03-30T14:02:17.792Z,9.10
2018-03-30T14:04:58.570Z,10.03
2018-03-30T14:07:38.414Z,9.60
2018-03-30T14:10:09.154Z,8.83
2018-03-30T14:12:41.008Z,8.33
2018-03-30T14:15:12.766Z,8.47
2018-03-30T14:20:37.961Z,8.23
2018-03-30T14:23:22.300Z,8.00
2018-03-30T14:25:57.598Z,7.33
2018-03-30T14:28:27.670Z,7.23
2018-03-30T14:31:12.640Z,6.57
2018-03-30T14:33:46.799Z,6.87
2018-03-30T14:36:18.811Z,7.23
2018-03-30T14:38:49.797Z,6.73
2018-03-30T14:41:18.992Z,6.47
2018-03-30T14:43:48.190Z,6.67
2018-03-30T14:46:17.382Z,7.10
2018-03-30T14:48:46.523Z,6.83
2018-03-30T14:51:16.514Z,6.90
2018-03-30T14:53:48.573Z,7.93
2018-03-30T14:56:18.580Z,8.10
2018-03-30T14:58:51.770Z,8.10
2018-03-30T15:01:20.981Z,7.60
2018-03-30T15:03:50.175Z,7.90
2018-03-30T15:06:25.201Z,7.20
2018-03-30T15:08:58.227Z,8.10
2018-03-30T15:11:38.248Z,7.20
2018-03-30T15:14:10.209Z,8.63
2018-03-30T15:16:56.098Z,8.20
2018-03-30T15:19:25.302Z,8.10
2018-03-30T15:21:54.556Z,7.70
2018-03-30T15:24:25.505Z,7.40
2018-03-30T15:26:55.453Z,7.50
2018-03-30T15:29:27.725Z,7.43
2018-03-30T15:32:14.740Z,8.30
2018-03-30T15:34:49.055Z,7.30
2018-03-30T15:37:20.143Z,7.43
2018-03-30T15:40:05.009Z,7.47
2018-03-30T15:42:37.034Z,7.60
2018-03-30T15:45:10.191Z,8.80
2018-03-30T15:47:39.389Z,8.10
2018-03-30T15:50:08.611Z,8.10
2018-03-30T15:52:37.809Z,8.60
2018-03-30T15:55:07.007Z,8.03
2018-03-30T15:57:36.209Z,9.33
2018-03-30T16:00:05.407Z,9.50
2018-03-30T16:02:34.611Z,9.53
2018-03-30T16:05:03.902Z,10.03
2018-03-30T16:07:33.101Z,10.50
2018-03-30T16:10:02.311Z,10.27
2018-03-30T16:12:31.947Z,10.03
2018-03-30T16:15:01.110Z,9.50
2018-03-30T16:17:30.305Z,10.57
2018-03-30T16:19:59.150Z,9.30
2018-03-30T16:22:27.985Z,10.57
2018-03-30T16:24:56.980Z,11.20
2018-03-30T16:27:25.848Z,10.80
2018-03-30T16:29:54.725Z,11.23
2018-03-30T16:32:23.640Z,11.53
2018-03-30T16:34:52.510Z,11.70
2018-03-30T16:37:21.437Z,12.37
2018-03-30T16:39:50.324Z,12.63
2018-03-30T16:42:19.176Z,13.83
2018-03-30T16:44:48.936Z,13.90
2018-03-30T16:47:17.783Z,13.00
2018-03-30T16:49:46.706Z,12.03
2018-03-30T16:52:15.567Z,12.57
2018-03-30T16:54:44.456Z,13.13
2018-03-30T16:57:14.085Z,13.03
2018-03-30T16:59:42.993Z,14.40
2018-03-30T17:02:11.842Z,17.57
2018-03-30T17:04:40.775Z,17.07
2018-03-30T17:07:09.665Z,15.87
2018-03-30T17:09:38.655Z,16.00
2018-03-30T17:12:07.559Z,13.07
2018-03-30T17:14:36.402Z,14.93
2018-03-30T17:17:05.293Z,17.03
2018-03-30T17:19:34.227Z,15.70
2018-03-30T17:22:03.125Z,15.60
2018-03-30T17:24:32.066Z,19.10
2018-03-30T17:27:01.004Z,19.73
2018-03-30T17:29:30.299Z,19.50
2018-03-30T17:31:59.200Z,20.57
2018-03-30T17:34:28.086Z,21.17
2018-03-30T17:36:57.072Z,22.53
2018-03-30T17:39:26.041Z,23.43
2018-03-30T17:41:56.398Z,24.03
2018-03-30T17:44:25.382Z,24.60
2018-03-30T17:46:54.273Z,23.73
2018-03-30T17:49:23.168Z,24.40
2018-03-30T17:51:52.060Z,26.27
2018-03-30T17:54:21.054Z,27.37
2018-03-30T17:56:50.044Z,26.83
2018-03-30T17:59:18.943Z,24.57
2018-03-30T18:01:47.828Z,22.30
2018-03-30T18:04:16.989Z,21.63
2018-03-30T18:06:45.830Z,21.50
2018-03-30T18:09:15.124Z,20.80
2018-03-30T18:11:44.105Z,19.87
2018-03-30T18:14:13.101Z,19.90
2018-03-30T18:16:41.998Z,19.13
2018-03-30T18:19:10.865Z,18.40
2018-03-30T18:21:39.774Z,18.90
2018-03-30T18:24:10.268Z,17.47
2018-03-30T18:26:39.198Z,17.40
2018-03-30T18:29:09.687Z,18.97
2018-03-30T18:31:38.721Z,18.30
2018-03-30T18:34:07.714Z,18.87
2018-03-30T18:36:36.615Z,17.93
2018-03-30T18:39:05.466Z,17.30
2018-03-30T18:41:34.592Z,18.37
2018-03-30T18:44:03.463Z,17.77
2018-03-30T18:46:32.349Z,18.27
2018-03-30T18:49:01.269Z,18.27
2018-03-30T18:51:30.236Z,17.83
2018-03-30T18:53:59.149Z,16.73
2018-03-30T18:56:28.119Z,17.63
2018-03-30T18:58:57.014Z,16.20
2018-03-30T19:01:25.935Z,17.27
2018-03-30T19:03:54.918Z,16.83
2018-03-30T19:06:24.019Z,17.23
2018-03-30T19:08:52.899Z,17.00
2018-03-30T19:11:21.897Z,17.30
2018-03-30T19:13:50.990Z,17.53
2018-03-30T19:16:20.099Z,17.23
2018-03-30T19:18:48.954Z,18.27
2018-03-30T19:21:17.824Z,16.63
2018-03-30T19:23:46.770Z,18.10
2018-03-30T19:26:15.973Z,17.93
2018-03-30T19:28:45.277Z,17.57
2018-03-30T19:31:15.398Z,17.33
2018-03-30T19:33:44.379Z,16.87
2018-03-30T19:36:13.278Z,17.20
2018-03-30T19:38:42.264Z,18.87
2018-03-30T19:41:11.365Z,18.63
2018-03-30T19:43:40.757Z,17.63
2018-03-30T19:46:10.674Z,17.97
2018-03-30T19:48:39.558Z,18.67
2018-03-30T19:51:08.449Z,17.17
2018-03-30T19:53:37.462Z,18.13
2018-03-30T19:56:06.334Z,18.87
2018-03-30T19:58:35.435Z,19.87
2018-03-30T20:01:04.426Z,18.50
2018-03-30T20:03:34.137Z,19.70
2018-03-30T20:06:04.198Z,20.17
2018-03-30T20:08:33.869Z,17.87
2018-03-30T20:11:04.772Z,19.73
2018-03-30T20:13:34.113Z,18.50
2018-03-30T20:16:03.303Z,20.17
2018-03-30T20:18:34.186Z,23.03
2018-03-30T20:21:03.859Z,22.50
2018-03-30T20:23:34.447Z,22.43
2018-03-30T20:26:03.808Z,22.30
2018-03-30T20:28:34.001Z,22.83
2018-03-30T20:31:04.311Z,24.00
2018-03-30T20:33:34.044Z,24.20
2018-03-30T20:36:03.747Z,21.57
2018-03-30T20:38:33.463Z,23.33
2018-03-30T20:41:03.269Z,21.77
2018-03-30T20:43:32.580Z,25.50
2018-03-30T20:46:02.289Z,21.73
2018-03-30T20:48:31.791Z,22.47
2018-03-30T20:51:01.718Z,22.43
2018-03-30T20:53:31.212Z,23.77
2018-03-30T20:56:00.819Z,22.33
2018-03-30T20:58:30.218Z,24.50
2018-03-30T21:01:00.455Z,24.10
2018-03-30T21:03:29.920Z,24.70
2018-03-30T21:05:59.041Z,23.00
2018-03-30T21:08:29.005Z,22.30
2018-03-30T21:10:58.578Z,20.70
2018-03-30T21:13:28.183Z,22.17
2018-03-30T21:15:57.474Z,24.00
2018-03-30T21:18:27.292Z,25.40
2018-03-30T21:20:56.904Z,24.20
2018-03-30T21:23:25.893Z,24.43
2018-03-30T21:25:55.951Z,25.60
2018-03-30T21:28:25.626Z,26.53
2018-03-30T21:30:54.609Z,25.50
2018-03-30T21:33:24.642Z,24.67
2018-03-30T21:35:54.233Z,25.83
2018-03-30T21:38:23.643Z,23.57
2018-03-30T21:40:53.463Z,24.27
2018-03-30T21:43:23.681Z,23.00
2018-03-30T21:45:53.496Z,26.00
2018-03-30T21:48:22.800Z,24.90
2018-03-30T21:50:52.827Z,23.23
2018-03-30T21:53:22.312Z,22.87
2018-03-30T21:55:51.508Z,23.50
2018-03-30T21:58:20.700Z,23.40
2018-03-30T22:00:50.269Z,23.67
2018-03-30T22:03:20.031Z,22.77
2018-03-30T22:05:49.255Z,22.50
2018-03-30T22:08:19.132Z,26.13
2018-03-30T22:10:49.148Z,22.53
2018-03-30T22:13:18.661Z,21.10
2018-03-30T22:15:47.630Z,23.00
2018-03-30T22:18:17.158Z,23.17
2018-03-30T22:20:46.458Z,21.33
2018-03-30T22:23:15.776Z,20.13
2018-03-30T22:25:45.170Z,19.13
2018-03-30T22:28:14.842Z,20.13
2018-03-30T22:30:44.379Z,20.83
2018-03-30T22:33:13.817Z,22.33
2018-03-30T22:35:43.394Z,23.47
2018-03-30T22:38:12.800Z,22.47
2018-03-30T22:40:42.702Z,23.93
2018-03-30T22:43:12.223Z,24.00
2018-03-30T22:45:42.028Z,26.87
2018-03-30T22:48:11.119Z,28.03
2018-03-30T22:50:40.418Z,27.50
2018-03-30T22:53:09.826Z,24.07
2018-03-30T22:55:39.539Z,23.83
2018-03-30T22:58:09.141Z,22.57
2018-03-30T23:00:38.874Z,23.83
2018-03-30T23:03:08.966Z,21.03
2018-03-30T23:05:38.390Z,24.10
2018-03-30T23:08:07.793Z,22.40
2018-03-30T23:10:37.489Z,24.33
2018-03-30T23:13:07.107Z,22.67
2018-03-30T23:15:36.816Z,21.50
2018-03-30T23:18:06.745Z,20.53
2018-03-30T23:20:36.326Z,20.10
2018-03-30T23:23:06.141Z,19.40
2018-03-30T23:25:35.544Z,17.03
2018-03-30T23:28:04.952Z,19.97
2018-03-30T23:30:34.813Z,22.77
2018-03-30T23:33:03.867Z,25.87
2018-03-30T23:35:34.296Z,22.17
2018-03-30T23:38:03.910Z,21.60
2018-03-30T23:40:33.700Z,21.57
2018-03-30T23:43:03.106Z,19.53
2018-03-30T23:45:33.751Z,22.00
2018-03-30T23:48:03.237Z,20.00
2018-03-30T23:50:32.956Z,18.67
2018-03-30T23:53:02.465Z,18.67
2018-03-30T23:55:31.959Z,19.40
2018-03-30T23:58:01.679Z,20.20
